Terminal Aerodrome Forecast
Issued by NWS North Platte, NE

Home | Current Version | Previous Version | Text Only | Print | Product List | Glossary Off
Versions: 1 2 3 4 5 6 7 8 9 10 11 12 13 14 15 16 17 18 19 20 21 22 23 24

000
FTUS43 KLBF 221955 RRA
TAFVTN
TAF
KVTN 221955Z 2220/2318 17023G32KT P6SM SCT100 BKN200
     FM230100 17015G24KT P6SM BKN200
     FM231000 18009KT P6SM BKN070
     FM231300 18009KT P6SM OVC015
     FM231500 18011G19KT P6SM BKN020
     FM231600 18012G19KT P6SM BKN050=

USA.gov is the U.S. government's official web portal to all federal, state and local government web resources and services.